Latest Weather Observations for McCluer Island

IDD60801

Issued at 12:01 pm CST Saturday 13 February 2016 (issued every 30 minutes, with the page automatically refreshed every 10 minutes)

About weather observations | Map of weather stations | Latest weather observations for NT | Other Formats
Station Details ID: 014274 Name: MCCLUER ISLAND Lat: -11.05 Lon: 132.98 Height: 1.4 m
Data from the previous 72 hours. | See also: Recent months at McCluer Island
Date/Time
CST
Temp
°C
App
Temp
°C
Dew
Point
Rel
Hum
%
Delta-T
°C
Wind Press
QNH
hPa
Press
MSL
hPa
Rain
since 9 am
mm
Dir
 
Spd
km/h
Gust
km/h
Spd
kts
Gust
kts
13/12:00pm 29.4 33.9 25.8 81 2.6 W 13 17 7 9 1008.1 1008.1 0.2
13/11:30am 29.6 35.1 26.2 82 2.4 W 9 13 5 7 1008.5 - 0.0
13/11:00am 29.1 34.0 25.9 83 2.3 W 11 13 6 7 1009.0 - 0.0
13/10:30am 28.5 32.9 25.7 85 2.0 W 13 17 7 9 1009.4 - 0.0
13/10:00am 28.1 31.4 25.7 87 1.7 WSW 19 20 10 11 1009.7 - 0.0
13/09:30am 28.0 31.2 25.6 87 1.7 WSW 19 20 10 11 1009.9 - 0.0
13/09:00am 27.6 32.9 25.8 90 1.3 SSE 9 15 5 8 1009.6 1009.6 4.6
13/08:30am 26.8 31.8 25.4 92 1.0 ESE 9 11 5 6 1009.4 - 4.6
13/08:00am 26.5 31.7 25.1 92 1.0 E 7 9 4 5 1009.0 - 4.2
13/07:30am 26.2 30.8 24.8 92 1.0 ESE 9 11 5 6 1008.4 - 3.8
13/07:00am 26.3 30.2 24.9 92 1.0 SE 13 17 7 9 1008.4 - 3.0
13/06:30am 26.8 30.8 25.6 93 0.8 SE 15 20 8 11 1008.6 - 2.4
13/06:00am 27.0 29.0 25.2 90 1.3 SE 24 35 13 19 1008.2 1008.2 0.2
13/05:30am 27.8 30.5 25.0 85 2.0 SSE 20 33 11 18 1007.6 - 0.0
13/05:00am 27.1 29.2 25.3 90 1.3 S 24 32 13 17 1006.9 - 0.0
13/04:30am 26.7 25.9 24.7 89 1.4 SSW 37 48 20 26 1006.7 - 0.0
13/04:00am 27.4 26.3 24.7 85 1.9 SSW 39 54 21 29 1006.7 - 0.0
13/03:58am 27.5 26.2 24.5 84 2.1 SSW 39 54 21 29 1006.6 - 0.0
13/03:53am 27.8 28.3 24.0 80 2.6 WSW 28 54 15 29 1006.7 - 0.0
13/03:30am 29.4 32.0 26.6 85 2.0 W 26 32 14 17 1006.2 - 0.0
13/03:00am 29.4 32.7 26.6 85 2.0 W 22 28 12 15 1006.3 1006.3 0.0
13/02:30am 29.5 33.7 27.1 87 1.7 W 19 24 10 13 1006.4 - 0.0
13/02:00am 29.5 32.6 26.9 86 1.9 W 24 30 13 16 1006.6 - 0.0
13/01:30am 29.6 32.9 26.6 84 2.1 W 22 24 12 13 1007.1 - 0.0
13/01:00am 29.6 33.2 26.4 83 2.3 W 20 26 11 14 1007.7 - 0.0
13/12:30am 29.2 32.4 26.4 85 2.0 W 22 26 12 14 1007.8 - 0.0
13/12:00am 29.4 32.1 26.8 86 1.9 WNW 26 28 14 15 1007.6 1007.6 0.0
 
Date/Time
CST
Temp
°C
App
Temp
°C
Dew
Point
Rel
Hum
%
Delta-T
°C
Wind Press
QNH
hPa
Press
MSL
hPa
Rain
since 9 am
mm
Dir
 
Spd
km/h
Gust
km/h
Spd
kts
Gust
kts
12/11:30pm 29.5 32.7 26.5 84 2.1 WNW 22 26 12 14 1008.1 - 0.0
12/11:00pm 29.6 33.3 26.6 84 2.1 WNW 20 24 11 13 1008.2 - 0.0
12/10:30pm 29.6 33.3 26.6 84 2.1 WNW 20 24 11 13 1008.0 - 0.0
12/10:00pm 29.6 33.3 26.6 84 2.1 W 20 22 11 12 1007.9 - 0.0
12/09:30pm 29.7 32.6 26.5 83 2.3 WNW 24 26 13 14 1007.8 - 0.0
12/09:00pm 29.7 33.2 26.9 85 2.0 W 22 28 12 15 1007.5 1007.5 0.0
12/08:30pm 29.8 32.0 26.6 83 2.3 WNW 28 32 15 17 1007.2 - 0.0
12/08:00pm 29.9 33.2 27.1 85 2.0 W 24 28 13 15 1007.1 - 0.0
12/07:30pm 29.9 32.5 26.7 83 2.3 W 26 30 14 16 1006.8 - 0.0
12/07:00pm 29.9 32.3 26.3 81 2.6 W 26 32 14 17 1006.5 - 0.0
12/06:30pm 30.1 32.2 26.5 81 2.6 W 28 32 15 17 1006.2 - 0.0
12/06:00pm 30.5 32.8 26.2 78 3.1 W 26 28 14 15 1006.2 1006.2 0.0
12/05:30pm 31.0 33.2 26.7 78 3.1 WNW 28 35 15 19 1005.7 - 0.0
12/05:00pm 31.1 32.5 26.6 77 3.2 WNW 32 35 17 19 1005.3 - 0.0
12/04:30pm 30.7 32.6 26.2 77 3.2 WNW 28 32 15 17 1005.2 - 0.0
12/04:00pm 31.1 32.9 26.1 75 3.6 WNW 28 33 15 18 1005.5 - 0.0
12/03:30pm 31.5 33.0 25.6 71 4.2 WNW 28 32 15 17 1005.8 - 0.0
12/03:00pm 31.4 34.4 26.2 74 3.7 WNW 22 26 12 14 1005.9 1005.9 0.0
12/02:30pm 31.0 35.6 26.5 77 3.2 NW 15 19 8 10 1006.1 - 0.0
12/02:00pm 31.4 35.4 26.7 76 3.4 NW 19 20 10 11 1006.4 - 0.0
12/01:30pm 31.4 35.2 26.4 75 3.6 NW 19 24 10 13 1006.8 - 0.0
12/01:00pm 30.6 35.2 25.9 76 3.3 NW 13 15 7 8 1007.3 - 0.0
12/12:30pm 30.5 35.4 25.8 76 3.3 WNW 11 15 6 8 1007.7 - 0.0
12/12:00pm 31.1 36.4 25.9 74 3.7 NW 9 11 5 6 1007.8 1007.8 0.0
12/11:30am 30.9 35.0 25.7 74 3.7 NW 15 17 8 9 1008.1 - 0.0
12/11:00am 30.8 35.7 25.8 74 3.6 NW 11 13 6 7 1008.2 - 0.0
12/10:30am 29.9 34.5 25.4 77 3.2 WNW 11 13 6 7 1008.6 - 0.0
12/10:00am 29.6 34.3 25.6 79 2.8 WSW 11 15 6 8 1009.0 - 0.0
12/09:30am 29.4 33.5 25.2 78 3.0 SSW 13 15 7 8 1008.9 - 0.0
12/09:00am 29.5 32.5 25.3 78 3.0 SSW 19 20 10 11 1008.9 1008.9 0.0
12/08:30am 29.4 32.4 25.2 78 3.0 S 19 24 10 13 1009.0 - 0.0
12/08:00am 28.3 30.8 24.7 81 2.5 S 20 30 11 16 1008.7 - 0.0
12/07:30am 28.4 31.8 25.2 83 2.2 S 17 20 9 11 1008.4 - 0.0
12/07:00am 28.3 32.1 25.3 84 2.1 S 15 20 8 11 1008.0 - 0.0
12/06:30am 28.4 31.2 25.2 83 2.2 SW 20 24 11 13 1007.5 - 0.0
12/06:00am 28.3 31.3 25.3 84 2.1 SSW 19 22 10 12 1007.1 1007.1 0.0
12/05:30am 28.5 31.5 25.3 83 2.2 SW 19 22 10 12 1006.8 - 0.0
12/05:00am 28.8 32.7 26.0 85 2.0 SW 17 20 9 11 1006.6 - 0.0
12/04:30am 29.3 32.2 26.5 85 2.0 W 24 28 13 15 1006.5 - 0.0
12/04:00am 29.4 32.6 26.4 84 2.1 W 22 26 12 14 1006.6 - 0.0
12/03:30am 29.2 32.1 26.0 83 2.3 W 22 28 12 15 1006.2 - 0.0
12/03:00am 29.2 31.3 25.4 80 2.7 WNW 24 28 13 15 1006.1 1006.1 0.0
12/02:30am 29.2 31.5 25.6 81 2.5 WNW 24 28 13 15 1006.1 - 0.0
12/02:00am 29.3 32.2 25.9 82 2.4 W 22 28 12 15 1006.5 - 0.0
12/01:30am 29.1 32.2 26.3 85 2.0 WNW 22 28 12 15 1007.2 - 0.0
12/01:00am 29.0 32.2 25.8 83 2.3 WNW 20 24 11 13 1007.2 - 0.0
12/12:30am 29.0 32.4 25.8 83 2.3 NW 19 22 10 12 1007.3 - 0.0
12/12:00am 29.1 32.9 26.5 86 1.9 NW 19 20 10 11 1007.8 1007.8 0.0
 
Date/Time
CST
Temp
°C
App
Temp
°C
Dew
Point
Rel
Hum
%
Delta-T
°C
Wind Press
QNH
hPa
Press
MSL
hPa
Rain
since 9 am
mm
Dir
 
Spd
km/h
Gust
km/h
Spd
kts
Gust
kts
11/11:30pm 29.0 32.3 26.0 84 2.1 WNW 20 22 11 12 1008.1 - 0.0
11/11:00pm 29.2 32.5 26.0 83 2.3 W 20 24 11 13 1008.0 - 0.0
11/10:30pm 29.3 33.0 26.3 84 2.1 WNW 19 22 10 12 1008.0 - 0.0
11/10:00pm 29.6 33.3 26.6 84 2.1 WNW 20 22 11 12 1007.6 - 0.0
11/09:30pm 29.4 32.8 26.2 83 2.3 NW 20 24 11 13 1007.1 - 0.0
11/09:00pm 29.3 33.1 26.5 85 2.0 NW 19 22 10 12 1006.8 1006.8 0.0
11/08:30pm 29.1 32.4 25.7 82 2.4 NW 19 24 10 13 1006.7 - 0.0
11/08:00pm 29.6 33.0 26.2 82 2.4 WNW 20 24 11 13 1006.1 - 0.0
11/07:30pm 29.7 32.6 25.9 80 2.7 WNW 22 26 12 14 1005.6 - 0.0
11/07:00pm 29.7 31.8 25.4 78 3.0 WNW 24 28 13 15 1005.0 - 0.0
11/06:30pm 29.8 31.1 23.3 68 4.5 WNW 22 26 12 14 1004.9 - 0.0
11/06:00pm 29.3 30.2 24.0 73 3.7 NW 26 32 14 17 1004.8 1004.8 0.0
11/05:30pm 30.2 32.9 24.8 73 3.8 NW 19 24 10 13 1004.5 - 0.0
11/05:00pm 30.6 33.5 24.5 70 4.3 NNW 17 20 9 11 1004.3 - 0.0
11/04:30pm 30.8 32.8 24.0 67 4.7 NW 20 24 11 13 1004.2 - 0.0
11/04:00pm 31.3 34.4 24.2 66 5.0 NW 15 19 8 10 1004.2 - 0.0
11/03:30pm 30.3 32.1 25.4 75 3.5 NW 26 33 14 18 1004.4 - 0.0
11/03:00pm 31.8 35.1 26.6 74 3.7 NW 22 26 12 14 1004.4 1004.4 0.0
11/02:30pm 32.3 35.5 25.9 69 4.6 WNW 20 22 11 12 1004.7 - 0.0
11/02:00pm 32.3 35.1 24.9 65 5.2 WNW 19 20 10 11 1005.0 - 0.0
11/01:30pm 31.9 35.1 25.0 67 4.9 W 17 20 9 11 1005.5 - 0.0
11/01:00pm 31.5 34.7 24.9 68 4.6 W 17 20 9 11 1005.8 - 0.0
11/12:30pm 32.4 35.7 25.7 68 4.8 W 19 22 10 12 1006.1 - 0.0
11/12:00pm 31.3 34.7 25.2 70 4.3 W 17 20 9 11 1006.4 1006.4 0.0
11/11:30am 31.1 35.3 24.7 68 4.5 WNW 11 19 6 10 1006.9 - 0.0
11/11:00am 30.8 34.0 24.9 71 4.1 NW 17 20 9 11 1006.6 - 0.0
11/10:30am 29.9 32.3 24.3 72 3.9 NW 19 22 10 12 1006.4 - 0.0
11/10:00am 29.3 31.4 25.3 79 2.8 WSW 24 33 13 18 1007.0 - 0.0
11/09:30am 29.0 32.4 25.8 83 2.3 WSW 19 22 10 12 1007.6 - 0.0
11/09:00am 28.8 32.4 25.6 83 2.3 SSW 17 22 9 12 1007.9 1007.9 3.0
11/08:30am 29.0 32.0 25.6 82 2.4 WSW 20 24 11 13 1007.9 - 3.0
11/08:00am 28.7 31.6 25.1 81 2.5 WSW 19 24 10 13 1007.3 - 3.0
11/07:30am 28.4 31.6 25.0 82 2.4 SW 17 20 9 11 1006.8 - 3.0
11/07:00am 27.9 33.0 24.9 84 2.1 W 7 9 4 5 1006.8 - 3.0
11/06:30am 27.6 31.3 24.6 84 2.1 W 13 15 7 8 1006.5 - 3.0
11/06:00am 27.6 31.3 24.6 84 2.1 W 13 17 7 9 1006.8 1006.8 3.0
11/05:30am 27.3 31.8 24.6 85 1.9 WSW 9 13 5 7 1006.7 - 3.0
11/05:00am 26.0 30.8 23.5 86 1.7 S 4 6 2 3 1006.3 - 3.0
11/04:30am 26.9 31.0 24.0 84 2.0 SSW 9 13 5 7 1006.1 - 3.0
11/04:00am 26.2 29.2 23.3 84 2.0 SW 13 17 7 9 1005.8 - 3.0
11/03:30am 27.3 29.9 24.9 87 1.7 W 20 24 11 13 1005.7 - 1.4
11/03:00am 27.0 28.1 25.0 89 1.4 W 28 35 15 19 1005.5 1005.5 1.2
11/02:30am 27.5 27.5 24.7 85 1.9 SW 33 41 18 22 1006.2 - 1.2
11/02:00am 28.0 30.5 24.4 81 2.5 S 19 24 10 13 1006.5 - 1.2
11/01:30am 27.8 30.5 24.2 81 2.5 S 17 20 9 11 1006.9 - 1.2
11/01:00am 27.7 31.1 24.7 84 2.1 SSE 15 20 8 11 1007.2 - 1.2
11/12:30am 27.6 30.0 24.6 84 2.1 SSE 20 30 11 16 1007.9 - 1.2
11/12:00am 28.2 32.6 25.0 83 2.2 SE 11 15 6 8 1008.2 1008.2 1.2
 
Date/Time
CST
Temp
°C
App
Temp
°C
Dew
Point
Rel
Hum
%
Delta-T
°C
Wind Press
QNH
hPa
Press
MSL
hPa
Rain
since 9 am
mm
Dir
 
Spd
km/h
Gust
km/h
Spd
kts
Gust
kts
10/11:30pm 27.8 31.9 25.2 86 1.8 SE 13 17 7 9 1008.3 - 1.2
10/11:00pm 28.4 31.4 25.2 83 2.2 SSE 19 30 10 16 1008.0 - 0.2
10/10:30pm 29.0 32.1 25.4 81 2.5 SSE 19 22 10 12 1008.2 - 0.0
10/10:00pm 29.5 34.6 26.7 85 2.0 WSW 13 17 7 9 1007.9 - 0.0
10/09:30pm 29.4 32.9 26.0 82 2.4 W 19 20 10 11 1007.2 - 0.0
10/09:00pm 29.3 32.6 25.7 81 2.6 W 19 20 10 11 1006.9 1006.9 0.0
10/08:30pm 29.5 32.1 25.5 79 2.8 W 22 26 12 14 1006.9 - 0.0
10/08:00pm 29.5 31.3 25.5 79 2.8 WNW 26 30 14 16 1006.7 - 0.0
10/07:30pm 29.2 30.5 24.7 77 3.1 W 26 30 14 16 1006.2 - 0.0
10/07:00pm 29.3 31.4 25.9 82 2.4 W 26 30 14 16 1006.0 - 0.0
10/06:30pm 29.3 32.3 26.1 83 2.3 W 22 28 12 15 1005.6 - 0.0
10/06:00pm 29.5 31.8 25.7 80 2.7 WSW 24 30 13 16 1005.4 1005.4 0.0
10/05:30pm 30.0 32.9 26.0 79 2.8 W 22 28 12 15 1004.9 - 0.0
10/05:00pm 30.1 32.6 26.0 78 2.9 W 24 30 13 16 1004.8 - 0.0
10/04:30pm 30.9 32.6 25.3 72 4.0 WNW 26 30 14 16 1004.3 - 0.0
10/04:00pm 30.5 33.0 25.3 74 3.7 WSW 22 28 12 15 1004.5 - 0.0
10/03:30pm 30.7 32.4 25.3 73 3.8 WSW 26 32 14 17 1004.7 - 0.0
10/03:00pm 31.6 32.4 25.7 71 4.2 W 32 37 17 20 1004.8 1004.8 0.0
10/02:30pm 31.9 34.1 26.7 74 3.7 WNW 28 33 15 18 1005.3 - 0.0
10/02:00pm 32.5 35.5 27.3 74 3.8 WNW 26 30 14 16 1005.4 - 0.0
10/01:30pm 32.3 34.3 26.4 71 4.2 WNW 28 32 15 17 1005.6 - 0.0
10/01:00pm 32.3 34.9 26.6 72 4.1 WNW 26 30 14 16 1006.2 - 0.0
10/12:30pm 32.0 35.2 27.0 75 3.6 W 24 30 13 16 1006.7 - 0.0

Other Formats:

Comma delimited format used in spreadsheet applications
http://www.bom.gov.au/fwo/IDD60801/IDD60801.94135.axf

JavaScript Object Notation format (JSON) in row-major order
http://www.bom.gov.au/fwo/IDD60801/IDD60801.94135.json